createdAt,value
2016-06-14T00:00:37.240Z,993.69
2016-06-14T00:01:37.276Z,993.66
2016-06-14T00:02:37.310Z,993.65
2016-06-14T00:03:37.343Z,993.62
2016-06-14T00:04:37.378Z,993.58
2016-06-14T00:05:37.412Z,993.58
2016-06-14T00:06:37.463Z,993.59
2016-06-14T00:07:37.497Z,993.57
2016-06-14T00:08:37.531Z,993.58
2016-06-14T00:09:37.565Z,993.6
2016-06-14T00:10:37.600Z,993.59
2016-06-14T00:11:37.634Z,993.57
2016-06-14T00:12:37.685Z,993.55
2016-06-14T00:13:37.718Z,993.56
2016-06-14T00:14:37.924Z,993.58
2016-06-14T00:15:37.787Z,993.59
2016-06-14T00:16:37.836Z,993.59
2016-06-14T00:17:37.856Z,993.61
2016-06-14T00:18:37.890Z,993.58
2016-06-14T00:19:37.940Z,993.63
2016-06-14T00:20:37.974Z,993.57
2016-06-14T00:21:38.009Z,993.62
2016-06-14T00:22:38.043Z,993.56
2016-06-14T00:23:38.077Z,993.6
2016-06-14T00:24:38.127Z,993.61
2016-06-14T00:25:38.161Z,993.58
2016-06-14T00:26:38.195Z,993.61
2016-06-14T00:27:38.230Z,993.59
2016-06-14T00:28:38.264Z,993.59
2016-06-14T00:29:38.299Z,993.58
2016-06-14T00:30:38.332Z,993.55
2016-06-14T00:31:38.367Z,993.57
2016-06-14T00:32:38.418Z,993.56
2016-06-14T00:33:38.452Z,993.58
2016-06-14T00:34:38.485Z,993.54
2016-06-14T00:35:38.520Z,993.58
2016-06-14T00:36:38.555Z,993.55
2016-06-14T00:37:38.589Z,993.57
2016-06-14T00:38:38.639Z,993.56
2016-06-14T00:39:38.673Z,993.57
2016-06-14T00:40:38.708Z,993.58
2016-06-14T00:42:38.776Z,993.54
2016-06-14T00:43:38.811Z,993.56
2016-06-14T00:44:39.439Z,993.54
2016-06-14T00:45:38.894Z,993.54
2016-06-14T00:46:38.929Z,993.54
2016-06-14T00:47:38.963Z,993.56
2016-06-14T00:48:38.998Z,993.55
2016-06-14T00:49:39.032Z,993.57
2016-06-14T00:50:39.082Z,993.57
2016-06-14T00:51:39.116Z,993.58
2016-06-14T00:52:39.150Z,993.55
2016-06-14T00:53:39.185Z,993.58
2016-06-14T00:54:39.220Z,993.56
2016-06-14T00:55:39.253Z,993.56
2016-06-14T00:56:39.288Z,993.54
2016-06-14T00:57:39.338Z,993.57
2016-06-14T00:58:39.372Z,993.55
2016-06-14T00:59:39.407Z,993.52
2016-06-14T01:00:39.441Z,993.54
2016-06-14T01:01:39.491Z,993.55
2016-06-14T01:02:39.525Z,993.51
2016-06-14T01:03:39.559Z,993.55
2016-06-14T01:04:39.594Z,993.49
2016-06-14T01:05:39.629Z,993.51
2016-06-14T01:06:39.662Z,993.52
2016-06-14T01:07:39.697Z,993.52
2016-06-14T01:08:39.731Z,993.54
2016-06-14T01:09:39.765Z,993.46
2016-06-14T01:10:39.800Z,993.51
2016-06-14T01:11:39.850Z,993.51
2016-06-14T01:12:39.883Z,993.54
2016-06-14T01:13:39.919Z,993.52
2016-06-14T01:14:40.109Z,993.5
2016-06-14T01:15:39.987Z,993.51
2016-06-14T01:16:40.036Z,993.45
2016-06-14T01:17:40.071Z,993.46
2016-06-14T01:18:40.106Z,993.49
2016-06-14T01:19:40.140Z,993.47
2016-06-14T01:20:40.174Z,993.47
2016-06-14T01:21:40.208Z,993.47
2016-06-14T01:22:40.259Z,993.52
2016-06-14T01:23:40.292Z,993.46
2016-06-14T01:24:40.327Z,993.46
2016-06-14T01:25:40.362Z,993.44
2016-06-14T01:26:40.396Z,993.45
2016-06-14T01:27:40.430Z,993.48
2016-06-14T01:28:40.480Z,993.46
2016-06-14T01:29:40.921Z,993.44
2016-06-14T01:30:40.549Z,993.44
2016-06-14T01:31:40.583Z,993.43
2016-06-14T01:32:40.633Z,993.43
2016-06-14T01:33:40.651Z,993.39
2016-06-14T01:34:40.701Z,993.39
2016-06-14T01:35:40.736Z,993.4
2016-06-14T01:36:40.771Z,993.41
2016-06-14T01:37:40.804Z,993.36
2016-06-14T01:38:40.854Z,993.38
2016-06-14T01:39:40.889Z,993.35
2016-06-14T01:40:40.923Z,993.36
2016-06-14T01:41:40.957Z,993.36
2016-06-14T01:42:40.992Z,993.32
2016-06-14T01:43:41.026Z,993.33
2016-06-14T01:44:41.060Z,993.32
2016-06-14T01:45:41.095Z,993.36
2016-06-14T01:46:41.129Z,993.32
2016-06-14T01:47:41.180Z,993.31
2016-06-14T01:48:41.213Z,993.3
2016-06-14T01:49:41.247Z,993.31
2016-06-14T01:50:41.282Z,993.29
2016-06-14T01:51:41.317Z,993.31
2016-06-14T01:52:41.350Z,993.3
2016-06-14T01:53:41.401Z,993.31
2016-06-14T01:54:41.434Z,993.26
2016-06-14T01:55:41.469Z,993.25
2016-06-14T01:56:41.504Z,993.23
2016-06-14T01:57:41.538Z,993.25
2016-06-14T01:58:41.572Z,993.27
2016-06-14T01:59:41.622Z,993.27
2016-06-14T02:00:41.656Z,993.26
2016-06-14T02:01:41.691Z,993.23
2016-06-14T02:02:41.725Z,993.24
2016-06-14T02:03:41.775Z,993.21
2016-06-14T02:04:41.794Z,993.24
2016-06-14T02:05:41.843Z,993.25
2016-06-14T02:06:41.894Z,993.24
2016-06-14T02:08:41.947Z,993.25
2016-06-14T02:09:41.981Z,993.26
2016-06-14T02:10:42.015Z,993.22
2016-06-14T02:11:42.065Z,993.25
2016-06-14T02:12:42.100Z,993.23
2016-06-14T02:13:42.134Z,993.22
2016-06-14T02:14:42.232Z,993.24
2016-06-14T02:15:42.202Z,993.22
2016-06-14T02:16:42.237Z,993.21
2016-06-14T02:17:42.271Z,993.16
2016-06-14T02:18:42.322Z,993.21
2016-06-14T02:19:42.371Z,993.19
2016-06-14T02:20:42.405Z,993.2
2016-06-14T02:21:42.456Z,993.19
2016-06-14T02:22:42.473Z,993.18
2016-06-14T02:23:42.493Z,993.18
2016-06-14T02:24:42.543Z,993.19
2016-06-14T02:25:42.577Z,993.2
2016-06-14T02:26:42.611Z,993.18
2016-06-14T02:27:42.646Z,993.19
2016-06-14T02:28:42.680Z,993.19
2016-06-14T02:29:42.714Z,993.22
2016-06-14T02:30:42.748Z,993.2
2016-06-14T02:31:42.798Z,993.2
2016-06-14T02:32:42.832Z,993.19
2016-06-14T02:33:42.867Z,993.2
2016-06-14T02:34:42.902Z,993.17
2016-06-14T02:35:42.936Z,993.19
2016-06-14T02:36:42.985Z,993.17
2016-06-14T02:37:43.020Z,993.2
2016-06-14T02:38:43.055Z,993.18
2016-06-14T02:39:43.089Z,993.17
2016-06-14T02:40:43.123Z,993.16
2016-06-14T02:41:43.157Z,993.14
2016-06-14T02:42:43.193Z,993.16
2016-06-14T02:43:43.241Z,993.15
2016-06-14T02:44:43.277Z,993.16
2016-06-14T02:45:43.311Z,993.12
2016-06-14T02:46:43.344Z,993.13
2016-06-14T02:47:43.379Z,993.12
2016-06-14T02:48:43.429Z,993.09
2016-06-14T02:49:43.464Z,993.06
2016-06-14T02:50:43.498Z,993.07
2016-06-14T02:51:43.532Z,993.09
2016-06-14T02:52:43.566Z,993.07
2016-06-14T02:53:43.601Z,993.07
2016-06-14T02:54:43.697Z,993.03
2016-06-14T02:55:43.669Z,993.06
2016-06-14T02:56:43.720Z,993.03
2016-06-14T02:57:43.816Z,993.02
2016-06-14T02:58:43.787Z,993.02
2016-06-14T02:59:43.823Z,993.02
2016-06-14T03:00:43.950Z,993.03
2016-06-14T03:01:43.891Z,993.05
2016-06-14T03:02:43.941Z,993.02
2016-06-14T03:03:43.991Z,993.03
2016-06-14T03:04:44.010Z,993.04
2016-06-14T03:05:44.044Z,993.02
2016-06-14T03:06:44.078Z,993.02
2016-06-14T03:07:44.113Z,993
2016-06-14T03:08:44.147Z,993.01
2016-06-14T03:09:44.196Z,993
2016-06-14T03:10:44.231Z,992.97
2016-06-14T03:11:44.265Z,992.97
2016-06-14T03:12:44.300Z,992.98
2016-06-14T03:13:44.334Z,992.97
2016-06-14T03:14:44.368Z,992.99
2016-06-14T03:15:44.402Z,993
2016-06-14T03:16:44.453Z,992.97
2016-06-14T03:17:44.487Z,992.94
2016-06-14T03:18:44.521Z,992.93
2016-06-14T03:19:44.556Z,992.91
2016-06-14T03:20:44.590Z,992.95
2016-06-14T03:21:44.624Z,992.88
2016-06-14T03:22:44.658Z,992.94
2016-06-14T03:23:44.739Z,992.9
2016-06-14T03:24:45.353Z,992.93
2016-06-14T03:25:54.433Z,992.93
2016-06-14T03:26:54.452Z,992.98
2016-06-14T03:27:54.487Z,992.97
2016-06-14T03:28:54.521Z,992.99
2016-06-14T03:29:54.570Z,992.98
2016-06-14T03:30:54.605Z,992.99
2016-06-14T03:31:54.638Z,993.03
2016-06-14T03:32:54.674Z,993.02
2016-06-14T03:33:54.708Z,993.04
2016-06-14T03:34:54.742Z,993.05
2016-06-14T03:35:54.792Z,993.06
2016-06-14T03:36:54.826Z,993.01
2016-06-14T03:37:54.861Z,993.06
2016-06-14T03:38:54.896Z,993.04
2016-06-14T03:39:54.930Z,993.01
2016-06-14T03:40:54.964Z,993.02
2016-06-14T03:41:54.998Z,993.02
2016-06-14T03:42:55.047Z,993.06
2016-06-14T03:43:55.083Z,993.04
2016-06-14T03:44:55.117Z,993.02
2016-06-14T03:45:55.151Z,992.98
2016-06-14T03:46:55.185Z,992.97
2016-06-14T03:47:55.220Z,992.99
2016-06-14T03:48:55.270Z,992.95
2016-06-14T03:49:55.304Z,992.96
2016-06-14T03:50:55.338Z,992.99
2016-06-14T03:51:55.372Z,993.01
2016-06-14T03:52:55.407Z,993
2016-06-14T03:53:55.441Z,992.99
2016-06-14T03:54:55.476Z,992.96
2016-06-14T03:55:55.526Z,993
2016-06-14T03:56:55.559Z,992.97
2016-06-14T03:57:55.594Z,992.96
2016-06-14T03:58:55.629Z,992.98
2016-06-14T03:59:55.663Z,992.98
2016-06-14T04:00:55.697Z,993.01
2016-06-14T04:01:55.747Z,993.01
2016-06-14T04:02:55.781Z,992.97
2016-06-14T04:03:55.816Z,992.99
2016-06-14T04:04:55.851Z,992.99
2016-06-14T04:05:55.884Z,992.99
2016-06-14T04:06:55.934Z,992.99
2016-06-14T04:07:55.953Z,992.97
2016-06-14T04:08:56.003Z,992.97
2016-06-14T04:09:56.038Z,992.95
2016-06-14T04:10:56.071Z,992.93
2016-06-14T04:11:56.106Z,992.92
2016-06-14T04:12:56.140Z,992.91
2016-06-14T04:13:56.175Z,992.94
2016-06-14T04:14:56.209Z,992.92
2016-06-14T04:15:56.681Z,992.95
2016-06-14T04:16:56.293Z,992.94
2016-06-14T04:17:56.327Z,992.96
2016-06-14T04:18:56.377Z,992.98
2016-06-14T04:19:56.397Z,992.96
2016-06-14T04:20:56.447Z,992.94
2016-06-14T04:21:56.480Z,992.96
2016-06-14T04:22:56.515Z,992.97
2016-06-14T04:23:56.548Z,992.97
2016-06-14T04:24:56.584Z,993
2016-06-14T04:25:56.618Z,992.99
2016-06-14T04:26:56.668Z,992.97
2016-06-14T04:27:56.702Z,992.99
2016-06-14T04:28:56.737Z,992.98
2016-06-14T04:29:56.802Z,992.98
2016-06-14T04:30:56.805Z,992.96
2016-06-14T04:31:56.856Z,992.94
2016-06-14T04:32:56.890Z,992.94
2016-06-14T04:33:56.923Z,992.96
2016-06-14T04:34:56.958Z,992.96
2016-06-14T04:35:56.993Z,992.94
2016-06-14T04:36:57.026Z,992.95
2016-06-14T04:37:57.076Z,992.92
2016-06-14T04:38:57.111Z,992.95
2016-06-14T04:39:57.145Z,992.96
2016-06-14T04:40:57.180Z,992.94
2016-06-14T04:41:57.214Z,992.92
2016-06-14T04:42:57.248Z,992.92
2016-06-14T04:43:57.282Z,992.94
2016-06-14T04:44:57.332Z,992.9
2016-06-14T04:45:57.366Z,992.91
2016-06-14T04:46:57.448Z,992.89
2016-06-14T04:47:57.436Z,992.9
2016-06-14T04:48:57.470Z,992.92
2016-06-14T04:49:57.503Z,992.98
2016-06-14T04:50:57.554Z,992.94
2016-06-14T04:51:57.589Z,992.94
2016-06-14T04:52:57.623Z,992.97
2016-06-14T04:53:57.657Z,992.99
2016-06-14T04:54:57.691Z,993
2016-06-14T04:55:57.726Z,992.95
2016-06-14T04:56:57.760Z,992.97
2016-06-14T04:57:57.795Z,993.01
2016-06-14T04:58:57.844Z,992.95
2016-06-14T04:59:57.878Z,992.97
2016-06-14T05:00:58.397Z,993
2016-06-14T05:01:57.948Z,993.03
2016-06-14T05:02:57.982Z,992.99
2016-06-14T05:03:58.016Z,992.98
2016-06-14T05:04:58.066Z,992.98
2016-06-14T05:05:58.100Z,992.96
2016-06-14T05:06:58.135Z,992.95
2016-06-14T05:07:58.169Z,992.97
2016-06-14T05:08:58.203Z,992.96
2016-06-14T05:09:58.237Z,992.96
2016-06-14T05:10:58.272Z,992.94
2016-06-14T05:11:58.322Z,992.92
2016-06-14T05:12:58.357Z,992.94
2016-06-14T05:13:58.391Z,992.97
2016-06-14T05:14:58.425Z,992.96
2016-06-14T05:15:58.459Z,992.96
2016-06-14T05:16:58.494Z,992.95
2016-06-14T05:17:58.528Z,992.95
2016-06-14T05:18:58.578Z,992.91
2016-06-14T05:19:58.612Z,992.94
2016-06-14T05:20:58.646Z,992.96
2016-06-14T05:21:58.681Z,992.94
2016-06-14T05:22:58.715Z,992.92
2016-06-14T05:23:58.749Z,992.93
2016-06-14T05:24:58.784Z,992.91
2016-06-14T05:25:58.819Z,992.89
2016-06-14T05:26:58.868Z,992.9
2016-06-14T05:27:58.902Z,992.95
2016-06-14T05:28:58.937Z,992.93
2016-06-14T05:29:58.971Z,992.94
2016-06-14T05:30:59.005Z,992.91
2016-06-14T05:31:59.039Z,992.91
2016-06-14T05:32:59.074Z,992.88
2016-06-14T05:33:59.124Z,992.91
2016-06-14T05:34:59.158Z,992.92
2016-06-14T05:35:59.192Z,992.87
2016-06-14T05:36:59.228Z,992.9
2016-06-14T05:37:59.261Z,992.92
2016-06-14T05:38:59.296Z,992.9
2016-06-14T05:39:59.329Z,992.91
2016-06-14T05:40:59.379Z,992.94
2016-06-14T05:41:59.414Z,992.91
2016-06-14T05:42:59.449Z,992.93
2016-06-14T05:43:59.483Z,992.86
2016-06-14T05:44:59.517Z,992.88
2016-06-14T05:45:59.567Z,992.89
2016-06-14T05:46:59.601Z,992.91
2016-06-14T05:47:59.636Z,992.91
2016-06-14T05:48:59.670Z,992.88
2016-06-14T05:49:59.705Z,992.93
2016-06-14T05:50:59.738Z,992.92
2016-06-14T05:51:59.774Z,992.88
2016-06-14T05:52:59.808Z,992.89
2016-06-14T05:53:59.858Z,992.9
2016-06-14T05:54:59.891Z,992.89
2016-06-14T05:55:59.926Z,992.94
2016-06-14T05:56:59.960Z,992.89
2016-06-14T05:57:59.995Z,992.91
2016-06-14T05:59:00.045Z,992.91
2016-06-14T06:00:00.079Z,992.92
2016-06-14T06:01:00.347Z,992.9
2016-06-14T06:02:00.147Z,992.93
2016-06-14T06:03:00.182Z,992.88
2016-06-14T06:04:00.232Z,992.91
2016-06-14T06:05:00.267Z,992.9
2016-06-14T06:06:00.300Z,992.85
2016-06-14T06:07:00.335Z,992.8
2016-06-14T06:08:00.369Z,992.84
2016-06-14T06:09:00.419Z,992.8
2016-06-14T06:10:00.454Z,992.82
2016-06-14T06:11:00.488Z,992.85
2016-06-14T06:12:00.522Z,992.84
2016-06-14T06:13:00.556Z,992.85
2016-06-14T06:14:00.606Z,992.84
2016-06-14T06:15:00.640Z,992.85
2016-06-14T06:16:00.675Z,992.85
2016-06-14T06:17:00.726Z,992.87
2016-06-14T06:18:00.759Z,992.87
2016-06-14T06:19:00.794Z,992.85
2016-06-14T06:20:00.827Z,992.81
2016-06-14T06:21:00.862Z,992.88
2016-06-14T06:22:00.912Z,992.81
2016-06-14T06:23:00.947Z,992.82
2016-06-14T06:24:00.981Z,992.83
2016-06-14T06:25:01.031Z,992.78
2016-06-14T06:26:01.065Z,992.83
2016-06-14T06:27:01.099Z,992.85
2016-06-14T06:28:01.134Z,992.81
2016-06-14T06:29:01.169Z,992.8
2016-06-14T06:30:01.218Z,992.76
2016-06-14T06:31:01.253Z,992.75
2016-06-14T06:32:01.303Z,992.76
2016-06-14T06:33:01.321Z,992.78
2016-06-14T06:34:01.371Z,992.8
2016-06-14T06:35:01.406Z,992.78
2016-06-14T06:36:01.455Z,992.81
2016-06-14T06:37:01.490Z,992.71
2016-06-14T06:38:01.524Z,992.77
2016-06-14T06:39:01.558Z,992.81
2016-06-14T06:40:01.608Z,992.75
2016-06-14T06:41:01.642Z,992.75
2016-06-14T06:42:01.677Z,992.76
2016-06-14T06:43:01.712Z,992.73
2016-06-14T06:44:01.761Z,992.74
2016-06-14T06:45:01.795Z,992.77
2016-06-14T06:46:01.855Z,992.77
2016-06-14T06:47:01.929Z,992.8
2016-06-14T06:48:02.018Z,992.76
2016-06-14T06:49:02.092Z,992.81
2016-06-14T06:50:02.166Z,992.78
2016-06-14T06:51:02.223Z,992.79
2016-06-14T06:52:02.286Z,992.72
2016-06-14T06:53:02.335Z,992.73
2016-06-14T06:54:02.383Z,992.72
2016-06-14T06:55:02.447Z,992.74
2016-06-14T06:56:02.475Z,992.74
2016-06-14T06:57:02.530Z,992.74
2016-06-14T06:58:02.568Z,992.75
2016-06-14T06:59:02.608Z,992.72
2016-06-14T07:00:02.648Z,992.77
2016-06-14T07:01:03.388Z,992.74
2016-06-14T07:02:02.737Z,992.73
2016-06-14T07:03:02.773Z,992.76
2016-06-14T07:04:02.824Z,992.76
2016-06-14T07:05:02.861Z,992.74
2016-06-14T07:06:02.895Z,992.71
2016-06-14T07:07:02.931Z,992.72
2016-06-14T07:08:02.966Z,992.67
2016-06-14T07:09:03.017Z,992.72
2016-06-14T07:10:03.050Z,992.7
2016-06-14T07:11:03.085Z,992.7
2016-06-14T07:12:03.136Z,992.7
2016-06-14T07:13:03.155Z,992.74
2016-06-14T07:14:03.205Z,992.77
2016-06-14T07:15:03.240Z,992.73
2016-06-14T07:16:03.508Z,992.73
2016-06-14T07:17:03.324Z,992.72
2016-06-14T07:18:03.343Z,992.71
2016-06-14T07:19:03.392Z,992.73
2016-06-14T07:20:03.428Z,992.71
2016-06-14T07:21:03.461Z,992.74
2016-06-14T07:22:03.496Z,992.72
2016-06-14T07:23:03.546Z,992.7
2016-06-14T07:24:03.580Z,992.69
2016-06-14T07:25:03.615Z,992.72
2016-06-14T07:26:03.649Z,992.69
2016-06-14T07:27:03.699Z,992.76
2016-06-14T07:28:03.733Z,992.74
2016-06-14T07:29:03.767Z,992.74
2016-06-14T07:30:03.801Z,992.72
2016-06-14T07:31:03.851Z,992.71
2016-06-14T07:32:03.886Z,992.7
2016-06-14T07:33:03.921Z,992.68
2016-06-14T07:34:03.955Z,992.73
2016-06-14T07:35:04.004Z,992.69
2016-06-14T07:36:04.039Z,992.69
2016-06-14T07:37:04.073Z,992.75
2016-06-14T07:38:04.122Z,992.72
2016-06-14T07:39:04.157Z,992.69
2016-06-14T07:40:04.192Z,992.67
2016-06-14T07:41:04.226Z,992.67
2016-06-14T07:42:04.260Z,992.67
2016-06-14T07:43:04.295Z,992.7
2016-06-14T07:44:04.344Z,992.64
2016-06-14T07:45:04.379Z,992.63
2016-06-14T07:46:04.414Z,992.67
2016-06-14T07:47:04.447Z,992.67
2016-06-14T07:48:04.497Z,992.62
2016-06-14T07:49:04.532Z,992.64
2016-06-14T07:50:04.567Z,992.64
2016-06-14T07:51:04.615Z,992.63
2016-06-14T07:52:04.651Z,992.65
2016-06-14T07:53:04.685Z,992.64
2016-06-14T07:54:04.719Z,992.65
2016-06-14T07:55:04.753Z,992.65
2016-06-14T07:56:04.803Z,992.65
2016-06-14T07:57:04.838Z,992.64
2016-06-14T07:58:04.873Z,992.67
2016-06-14T07:59:04.906Z,992.7
2016-06-14T08:00:04.956Z,992.7
2016-06-14T08:01:04.991Z,992.69
2016-06-14T08:02:05.024Z,992.69
2016-06-14T08:03:05.060Z,992.73
2016-06-14T08:04:05.110Z,992.64
2016-06-14T08:05:05.144Z,992.61
2016-06-14T08:06:05.178Z,992.67
2016-06-14T08:07:05.211Z,992.64
2016-06-14T08:08:05.262Z,992.61
2016-06-14T08:09:05.296Z,992.65
2016-06-14T08:10:05.331Z,992.61
2016-06-14T08:11:05.365Z,992.62
2016-06-14T08:12:05.416Z,992.62
2016-06-14T08:13:05.449Z,992.66
2016-06-14T08:14:05.483Z,992.66
2016-06-14T08:15:05.533Z,992.67
2016-06-14T08:16:05.568Z,992.68
2016-06-14T08:17:05.602Z,992.63
2016-06-14T08:18:05.636Z,992.68
2016-06-14T08:19:05.687Z,992.69
2016-06-14T08:20:05.721Z,992.68
2016-06-14T08:21:05.755Z,992.69
2016-06-14T08:22:05.790Z,992.68
2016-06-14T08:23:05.980Z,992.69
2016-06-14T08:24:05.874Z,992.7
2016-06-14T08:25:05.909Z,992.69
2016-06-14T08:26:05.942Z,992.73
2016-06-14T08:27:05.992Z,992.7
2016-06-14T08:28:06.026Z,992.67
2016-06-14T08:29:06.062Z,992.69
2016-06-14T08:30:06.096Z,992.67
2016-06-14T08:31:06.363Z,992.66
2016-06-14T08:32:06.180Z,992.66
2016-06-14T08:33:06.230Z,992.65
2016-06-14T08:34:06.247Z,992.68
2016-06-14T08:35:06.298Z,992.69
2016-06-14T08:36:06.333Z,992.7
2016-06-14T08:37:06.367Z,992.68
2016-06-14T08:38:06.417Z,992.65
2016-06-14T08:39:06.435Z,992.67
2016-06-14T08:40:06.485Z,992.67
2016-06-14T08:41:06.519Z,992.64
2016-06-14T08:42:06.555Z,992.68
2016-06-14T08:43:06.589Z,992.67
2016-06-14T08:44:06.638Z,992.67
2016-06-14T08:45:06.673Z,992.71
2016-06-14T08:46:06.706Z,992.7
2016-06-14T08:47:06.742Z,992.72
2016-06-14T08:48:06.776Z,992.73
2016-06-14T08:49:06.826Z,992.72
2016-06-14T08:50:06.860Z,992.74
2016-06-14T08:51:06.895Z,992.7
2016-06-14T08:52:06.928Z,992.7
2016-06-14T08:53:06.963Z,992.7
2016-06-14T08:54:07.013Z,992.68
2016-06-14T08:55:07.048Z,992.64
2016-06-14T08:56:07.081Z,992.61
2016-06-14T08:57:07.132Z,992.66
2016-06-14T08:58:07.166Z,992.64
2016-06-14T08:59:07.199Z,992.61
2016-06-14T09:00:07.250Z,992.65
2016-06-14T09:01:07.285Z,992.65
2016-06-14T09:02:07.319Z,992.62
2016-06-14T09:03:07.353Z,992.66
2016-06-14T09:04:07.387Z,992.65
2016-06-14T09:05:07.437Z,992.66
2016-06-14T09:06:07.471Z,992.66
2016-06-14T09:07:07.506Z,992.62
2016-06-14T09:08:07.557Z,992.64
2016-06-14T09:09:07.591Z,992.65
2016-06-14T09:10:07.624Z,992.6
2016-06-14T09:11:07.674Z,992.6
2016-06-14T09:12:07.708Z,992.6
2016-06-14T09:13:07.743Z,992.54
2016-06-14T09:14:07.793Z,992.54
2016-06-14T09:15:07.828Z,992.58
2016-06-14T09:16:07.862Z,992.58
2016-06-14T09:17:07.896Z,992.61
2016-06-14T09:18:07.946Z,992.66
2016-06-14T09:19:07.980Z,992.58
2016-06-14T09:20:08.014Z,992.61
2016-06-14T09:21:08.050Z,992.6
2016-06-14T09:22:08.099Z,992.56
2016-06-14T09:23:08.134Z,992.58
2016-06-14T09:24:08.184Z,992.58
2016-06-14T09:25:08.218Z,992.64
2016-06-14T09:26:08.252Z,992.59
2016-06-14T09:27:08.286Z,992.6
2016-06-14T09:28:08.321Z,992.54
2016-06-14T09:29:08.371Z,992.55
2016-06-14T09:30:08.405Z,992.56
2016-06-14T09:31:08.673Z,992.52
2016-06-14T09:32:08.989Z,992.51
2016-06-14T09:33:08.523Z,992.5
2016-06-14T09:34:08.558Z,992.52
2016-06-14T09:35:08.592Z,992.51
2016-06-14T09:36:08.642Z,992.55
2016-06-14T09:37:08.677Z,992.51
2016-06-14T09:38:08.727Z,992.56
2016-06-14T09:39:08.745Z,992.45
2016-06-14T09:40:08.795Z,992.54
2016-06-14T09:41:08.828Z,992.47
2016-06-14T09:42:08.879Z,992.56
2016-06-14T09:43:08.914Z,992.53
2016-06-14T09:44:08.948Z,992.54
2016-06-14T09:45:08.983Z,992.52
2016-06-14T09:46:09.032Z,992.52
2016-06-14T09:47:09.067Z,992.51
2016-06-14T09:48:09.100Z,992.51
2016-06-14T09:49:09.150Z,992.51
2016-06-14T09:50:09.186Z,992.55
2016-06-14T09:51:09.219Z,992.53
2016-06-14T09:52:09.270Z,992.5
2016-06-14T09:53:09.303Z,992.51
2016-06-14T09:54:09.338Z,992.53
2016-06-14T09:55:09.388Z,992.48
2016-06-14T09:56:09.438Z,992.51
2016-06-14T09:57:09.457Z,992.48
2016-06-14T09:58:09.506Z,992.49
2016-06-14T09:59:09.541Z,992.48
2016-06-14T10:00:09.575Z,992.48
2016-06-14T10:01:09.625Z,992.51
2016-06-14T10:02:09.660Z,992.51
2016-06-14T10:03:09.694Z,992.51
2016-06-14T10:04:09.743Z,992.52
2016-06-14T10:05:09.778Z,992.56
2016-06-14T10:06:09.813Z,992.54
2016-06-14T10:07:09.863Z,992.55
2016-06-14T10:08:09.897Z,992.52
2016-06-14T10:09:09.931Z,992.49
2016-06-14T10:10:09.981Z,992.56
2016-06-14T10:11:10.015Z,992.5
2016-06-14T10:12:10.065Z,992.52
2016-06-14T10:13:10.099Z,992.54
2016-06-14T10:14:10.134Z,992.52
2016-06-14T10:15:10.183Z,992.48
2016-06-14T10:16:10.218Z,992.5
2016-06-14T10:17:10.252Z,992.52
2016-06-14T10:18:10.303Z,992.5
2016-06-14T10:19:10.337Z,992.49
2016-06-14T10:20:10.370Z,992.47
2016-06-14T10:21:10.421Z,992.43
2016-06-14T10:22:10.455Z,992.42
2016-06-14T10:23:10.490Z,992.43
2016-06-14T10:24:10.540Z,992.43
2016-06-14T10:25:10.589Z,992.43
2016-06-14T10:26:10.624Z,992.43
2016-06-14T10:27:10.658Z,992.43
2016-06-14T10:28:10.709Z,992.47
2016-06-14T10:29:10.726Z,992.44
2016-06-14T10:30:10.776Z,992.43
2016-06-14T10:31:10.889Z,992.5
2016-06-14T10:32:10.860Z,992.51
2016-06-14T10:33:10.896Z,992.55
2016-06-14T10:34:10.930Z,992.5
2016-06-14T10:35:10.963Z,992.49
2016-06-14T10:36:11.014Z,992.49
2016-06-14T10:37:11.048Z,992.44
2016-06-14T10:38:11.083Z,992.47
2016-06-14T10:39:11.132Z,992.44
2016-06-14T10:40:11.168Z,992.48
2016-06-14T10:41:11.201Z,992.41
2016-06-14T10:42:11.251Z,992.49
2016-06-14T10:43:11.285Z,992.47
2016-06-14T10:44:11.320Z,992.47
2016-06-14T10:45:11.355Z,992.55
2016-06-14T10:46:11.403Z,992.51
2016-06-14T10:47:11.439Z,992.45
2016-06-14T10:48:11.472Z,992.45
2016-06-14T10:49:11.506Z,992.46
2016-06-14T10:50:11.557Z,992.5
2016-06-14T10:51:11.591Z,992.4
2016-06-14T10:52:11.641Z,992.47
2016-06-14T10:53:11.675Z,992.43
2016-06-14T10:54:11.711Z,992.45
2016-06-14T10:55:11.760Z,992.47
2016-06-14T10:56:11.794Z,992.37
2016-06-14T10:57:11.829Z,992.37
2016-06-14T10:58:11.878Z,992.36
2016-06-14T10:59:11.912Z,992.38
2016-06-14T11:00:11.946Z,992.38
2016-06-14T11:01:11.997Z,992.39
2016-06-14T11:02:12.047Z,992.37
2016-06-14T11:03:12.081Z,992.4
2016-06-14T11:04:12.116Z,992.44
2016-06-14T11:05:12.166Z,992.41
2016-06-14T11:06:12.200Z,992.38
2016-06-14T11:07:12.234Z,992.38
2016-06-14T11:08:12.284Z,992.31
2016-06-14T11:09:12.318Z,992.32
2016-06-14T11:10:12.368Z,992.35
2016-06-14T11:11:12.402Z,992.31
2016-06-14T11:12:12.452Z,992.26
2016-06-14T11:13:12.486Z,992.25
2016-06-14T11:14:12.536Z,992.35
2016-06-14T11:15:12.587Z,992.31
2016-06-14T11:16:12.965Z,992.24
2016-06-14T11:17:12.670Z,992.25
2016-06-14T11:18:12.706Z,992.26
2016-06-14T11:19:12.755Z,992.26
2016-06-14T11:20:12.790Z,992.27
2016-06-14T11:21:12.841Z,992.29
2016-06-14T11:22:12.874Z,992.23
2016-06-14T11:23:12.925Z,992.28
2016-06-14T11:24:12.959Z,992.34
2016-06-14T11:25:13.008Z,992.31
2016-06-14T11:26:13.043Z,992.3
2016-06-14T11:27:13.093Z,992.28
2016-06-14T11:28:13.126Z,992.23
2016-06-14T11:29:13.177Z,992.21
2016-06-14T11:30:13.211Z,992.19
2016-06-14T11:31:13.261Z,992.16
2016-06-14T11:32:13.295Z,992.17
2016-06-14T11:33:13.345Z,992.18
2016-06-14T11:34:13.395Z,992.17
2016-06-14T11:35:13.445Z,992.23
2016-06-14T11:36:13.479Z,992.19
2016-06-14T11:37:13.530Z,992.19
2016-06-14T11:38:13.564Z,992.22
2016-06-14T11:39:13.614Z,992.15
2016-06-14T11:40:13.649Z,992.16
2016-06-14T11:41:13.713Z,992.14
2016-06-14T11:42:13.733Z,992.16
2016-06-14T11:43:13.783Z,992.14
2016-06-14T11:44:13.832Z,992.1
2016-06-14T11:45:13.867Z,992.09
2016-06-14T11:46:13.917Z,992.12
2016-06-14T11:47:13.951Z,992.09
2016-06-14T11:48:14.001Z,992.11
2016-06-14T11:49:14.566Z,992.12
2016-06-14T11:50:14.086Z,992.15
2016-06-14T11:51:14.120Z,992.16
2016-06-14T11:52:14.170Z,992.15
2016-06-14T11:53:14.204Z,992.14
2016-06-14T11:54:14.253Z,992.11
2016-06-14T11:55:14.288Z,992.14
2016-06-14T11:56:14.338Z,992.12
2016-06-14T11:57:14.371Z,992.11
2016-06-14T11:58:14.422Z,992.12
2016-06-14T11:59:14.457Z,992.09
2016-06-14T12:00:14.506Z,992.11
2016-06-14T12:01:14.541Z,992.11
2016-06-14T12:02:14.591Z,992.08
2016-06-14T12:03:14.626Z,992.08
2016-06-14T12:04:14.676Z,992.11
2016-06-14T12:05:14.710Z,992.05
2016-06-14T12:06:14.759Z,992.07
2016-06-14T12:07:14.793Z,992.02
2016-06-14T12:08:14.844Z,992.05
2016-06-14T12:09:14.878Z,992
2016-06-14T12:10:14.912Z,992.06
2016-06-14T12:11:14.962Z,992.04
2016-06-14T12:12:15.012Z,992.05
2016-06-14T12:13:15.046Z,992.05
2016-06-14T12:14:15.096Z,991.99
2016-06-14T12:15:15.132Z,992.06
2016-06-14T12:16:15.165Z,991.98
2016-06-14T12:17:15.216Z,992.08
2016-06-14T12:18:15.249Z,992.04
2016-06-14T12:19:15.300Z,992.07
2016-06-14T12:20:15.333Z,992.04
2016-06-14T12:21:15.384Z,992.04
2016-06-14T12:22:15.418Z,992.05
2016-06-14T12:23:15.468Z,992
2016-06-14T12:24:15.501Z,992.01
2016-06-14T12:25:15.552Z,991.97
2016-06-14T12:26:15.587Z,991.98
2016-06-14T12:27:15.636Z,991.97
2016-06-14T12:28:15.671Z,991.98
2016-06-14T12:29:15.720Z,992.05
2016-06-14T12:30:15.755Z,992.01
2016-06-14T12:31:15.789Z,991.99
2016-06-14T12:32:15.839Z,992.03
2016-06-14T12:33:15.874Z,992
2016-06-14T12:34:15.924Z,991.98